Wilson Gdynia — 8PSA — position and weather

sailwx.info

Track history (hours):
 
Tides and Currents Weather Stations Pressure Air Temp Water Temp Dewpoint Dewpoint Depression Visibility Wind Speed Wind Dir Waves Ship Positions

Wilson Gdynia

Last reported at 2017-Nov-18 12:00 UTC. Time now 2017-Nov-18 17:37 UTC.
Position N 54°49' E 000°06'.

Length 88 m; draft 5.8 m.

Type: Ship. MMSI: 314192000.

Date/timePositionNaut miles runAvg speedWind from/ knotsBaromVisibWave heightAir tempDewpointWater temp
2017-Nov-18 12:00N 54°49' E 000°06'5 7.2
2017-Nov-18 11:23N 54°45' E 000°09'3 7.6
2017-Nov-18 10:57N 54°42' E 000°11'3 7.5
2017-Nov-18 10:31N 54°39' E 000°13'4 7.4
2017-Nov-18 10:01N 54°35' E 000°16'4 8.0
2017-Nov-18 09:31N 54°32' E 000°18'4 7.6
2017-Nov-18 09:01N 54°28' E 000°21'4 7.5
2017-Nov-18 08:31N 54°25' E 000°23'4 7.8
2017-Nov-18 08:01N 54°21' E 000°26'4 8.0
2017-Nov-18 07:31N 54°17' E 000°28'5 8.3
2017-Nov-18 06:54N 54°13' E 000°31'3 8.8
2017-Nov-18 06:30N 54°09' E 000°33'4 8.8
2017-Nov-18 06:00N 54°05' E 000°36'54 8.3
2017-Nov-17 23:29N 53°20' E 001°26'510.1
2017-Nov-17 23:00N 53°16' E 001°30'5 9.9
2017-Nov-17 22:30N 53°12' E 001°34'5 9.5
2017-Nov-17 22:01N 53°07' E 001°37'5 9.1
2017-Nov-17 21:31N 53°03' E 001°40'4 8.4
2017-Nov-17 21:01N 53°00' E 001°44'4 8.1
2017-Nov-17 20:31N 52°58' E 001°50'4 7.6
2017-Nov-17 20:01N 52°55' E 001°55'4 7.0
2017-Nov-17 19:30N 52°53' E 001°59'3 7.0
2017-Nov-17 19:00N 52°50' E 002°03'3 7.0
2017-Nov-17 18:30N 52°48' E 002°07'69 9.5
2017-Nov-17 11:14N 52°07' E 003°38'2 9.7
2017-Nov-17 11:00N 52°06' E 003°41'510.0
2017-Nov-17 10:31N 52°03' E 003°48'4 7.6
2017-Nov-17 10:01N 52°02' E 003°54'510.3
2017-Nov-17 09:31N 51°60' E 004°02'612.0
2017-Nov-17 09:00N 51°57' E 004°10'612.0
2017-Nov-17 08:30N 51°54' E 004°18'2 4.1
2017-Nov-17 07:58N 51°54' E 004°22'0 0.0
2017-Nov-17 07:28N 51°54' E 004°22'0 0.0
2017-Nov-17 06:58N 51°54' E 004°22'0 0.0
2017-Nov-17 06:28N 51°54' E 004°22'0 0.0
2017-Nov-17 05:58N 51°54' E 004°22'0 0.1
2017-Nov-17 05:28N 51°54' E 004°22'0 0.0
2017-Nov-17 04:58N 51°54' E 004°22'0 0.0
2017-Nov-17 04:28N 51°54' E 004°22'0 0.0
2017-Nov-17 03:58N 51°54' E 004°22'0 0.0
2017-Nov-17 03:28N 51°54' E 004°22'0 0.0
2017-Nov-17 02:58N 51°54' E 004°22'0 0.0
2017-Nov-17 02:25N 51°54' E 004°22'0 0.0
2017-Nov-17 01:58N 51°54' E 004°22'0 0.0
2017-Nov-17 01:25N 51°54' E 004°22'0 0.0
2017-Nov-17 00:58N 51°54' E 004°22'0 0.0
2017-Nov-17 00:28N 51°54' E 004°22'0 0.0
2017-Nov-16 23:58N 51°54' E 004°22'0 0.0
2017-Nov-16 23:28N 51°54' E 004°22'0 0.0
2017-Nov-16 22:58N 51°54' E 004°22'0 0.0
2017-Nov-16 22:28N 51°54' E 004°22'0 0.0
2017-Nov-16 21:58N 51°54' E 004°22'0 0.0
2017-Nov-16 21:28N 51°54' E 004°22'0 0.0
2017-Nov-16 20:58N 51°54' E 004°22'0 0.0
2017-Nov-16 20:22N 51°54' E 004°22'0 0.0
2017-Nov-16 19:58N 51°54' E 004°22'0 0.0
2017-Nov-16 19:28N 51°54' E 004°22'0 0.0
2017-Nov-16 18:58N 51°54' E 004°22'0 0.0
2017-Nov-16 18:28N 51°54' E 004°22'0 0.1
2017-Nov-16 17:58N 51°54' E 004°22'0 0.1
2017-Nov-16 17:28N 51°54' E 004°22'0 0.0
2017-Nov-16 16:58N 51°54' E 004°22'0 0.0
2017-Nov-16 16:28N 51°54' E 004°22'0 0.0
2017-Nov-16 15:58N 51°54' E 004°22'0 0.0
2017-Nov-16 15:28N 51°54' E 004°22'0 0.0
2017-Nov-16 14:58N 51°54' E 004°22'0 0.0
2017-Nov-16 14:28N 51°54' E 004°22'0 0.0
2017-Nov-16 13:58N 51°54' E 004°22'0 0.0
2017-Nov-16 13:28N 51°54' E 004°22'0 0.0
2017-Nov-16 12:55N 51°54' E 004°22'0 0.0
2017-Nov-16 12:28N 51°54' E 004°22'0 0.0
2017-Nov-16 11:58N 51°54' E 004°22'0 0.0
2017-Nov-16 11:22N 51°54' E 004°22'0 0.1
2017-Nov-16 11:01N 51°54' E 004°22'2 4.9
2017-Nov-16 10:30N 51°54' E 004°26'2 2.9
2017-Nov-16 09:59N 51°54' E 004°28'0 0.0
2017-Nov-16 09:29N 51°54' E 004°28'0 0.0
2017-Nov-16 08:59N 51°54' E 004°28'0 0.0
2017-Nov-16 08:29N 51°54' E 004°28'0 0.0
2017-Nov-16 07:59N 51°54' E 004°28'0 0.0
2017-Nov-16 07:29N 51°54' E 004°28'0 0.0
2017-Nov-16 06:59N 51°54' E 004°28'0 0.0
2017-Nov-16 06:29N 51°54' E 004°28'0 0.0
2017-Nov-16 05:59N 51°54' E 004°28'0 0.0
2017-Nov-16 05:29N 51°54' E 004°28'0 0.0
2017-Nov-16 04:59N 51°54' E 004°28'0 0.0
2017-Nov-16 04:29N 51°54' E 004°28'0 0.0
2017-Nov-16 03:59N 51°54' E 004°28'0 0.0
2017-Nov-16 03:29N 51°54' E 004°28'0 0.0
2017-Nov-16 02:59N 51°54' E 004°28'0 0.0
2017-Nov-16 02:29N 51°54' E 004°28'0 0.0
2017-Nov-16 01:59N 51°54' E 004°28'0 0.0
2017-Nov-16 01:29N 51°54' E 004°28'0 0.0
2017-Nov-16 00:59N 51°54' E 004°28'0 0.2
2017-Nov-16 00:30N 51°54' E 004°28'0 0.3
2017-Nov-15 23:59N 51°54' E 004°28'0 0.0
2017-Nov-15 23:29N 51°54' E 004°28'0 0.0
2017-Nov-15 23:00N 51°54' E 004°28'3 6.3
2017-Nov-15 22:30N 51°54' E 004°23'3 5.5
2017-Nov-15 22:00N 51°52' E 004°20'5 9.9
2017-Nov-15 21:30N 51°50' E 004°28'5 9.4
2017-Nov-15 21:00N 51°48' E 004°35'5 9.7
2017-Nov-15 20:30N 51°44' E 004°38'3 5.3
2017-Nov-15 19:59N 51°42' E 004°36'0 0.0
2017-Nov-15 19:29N 51°42' E 004°36'0 0.0
2017-Nov-15 18:59N 51°42' E 004°36'0 0.0
2017-Nov-15 18:26N 51°42' E 004°36'0 0.0
2017-Nov-15 17:56N 51°42' E 004°36'0 0.0
2017-Nov-15 17:29N 51°42' E 004°36'0 0.0
2017-Nov-15 16:59N 51°42' E 004°36'0 0.0
2017-Nov-15 15:29N 51°42' E 004°36'0 0.0
2017-Nov-15 14:53N 51°42' E 004°36'0 0.0
2017-Nov-15 14:29N 51°42' E 004°36'0 0.0
2017-Nov-15 13:41N 51°42' E 004°36'0 0.0
2017-Nov-15 13:29N 51°42' E 004°36'0 0.0
2017-Nov-15 12:59N 51°42' E 004°36'0 0.0
2017-Nov-15 12:29N 51°42' E 004°36'0 0.0
2017-Nov-15 11:59N 51°42' E 004°36'0 0.0
2017-Nov-15 10:53N 51°42' E 004°36'0 0.0
2017-Nov-15 10:26N 51°42' E 004°36'0 0.0
2017-Nov-15 09:56N 51°42' E 004°36'0 0.0
2017-Nov-15 09:14N 51°42' E 004°36'0 0.0
2017-Nov-15 08:50N 51°42' E 004°36'0 0.0
2017-Nov-15 08:29N 51°42' E 004°36'0 0.0
2017-Nov-15 07:53N 51°42' E 004°36'0 0.0
2017-Nov-15 07:17N 51°42' E 004°36'0 0.0
2017-Nov-15 06:47N 51°42' E 004°36'0 0.0
2017-Nov-15 06:26N 51°42' E 004°36'0 0.0
2017-Nov-15 05:59N 51°42' E 004°36'0 0.0
2017-Nov-15 05:05N 51°42' E 004°36'0 0.0
2017-Nov-15 04:53N 51°42' E 004°36'0 0.0
2017-Nov-15 04:26N 51°42' E 004°36'0 0.0
2017-Nov-15 03:59N 51°42' E 004°36'0 0.0
2017-Nov-15 03:29N 51°42' E 004°36'0 0.0
2017-Nov-15 02:53N 51°42' E 004°36'0 0.0
2017-Nov-15 02:26N 51°42' E 004°36'0 0.0
2017-Nov-15 01:50N 51°42' E 004°36'0 0.0
2017-Nov-15 01:26N 51°42' E 004°36'0 0.0
2017-Nov-15 00:53N 51°42' E 004°36'0 0.0
2017-Nov-15 00:23N 51°42' E 004°36'0 0.0
2017-Nov-14 23:29N 51°42' E 004°36'0 0.0
2017-Nov-14 22:59N 51°42' E 004°36'0 0.0
2017-Nov-14 22:29N 51°42' E 004°36'0 0.0
2017-Nov-14 21:50N 51°42' E 004°36'0 0.0
2017-Nov-14 21:26N 51°42' E 004°36'0 0.0
2017-Nov-14 20:59N 51°42' E 004°36'0 0.0
2017-Nov-14 20:29N 51°42' E 004°36'0 0.0
2017-Nov-14 19:59N 51°42' E 004°36'0 0.0
2017-Nov-14 19:26N 51°42' E 004°36'0 0.0
2017-Nov-14 18:59N 51°42' E 004°36'0 0.0
2017-Nov-14 18:29N 51°42' E 004°36'0 0.0
2017-Nov-14 17:53N 51°42' E 004°36'0 0.0
2017-Nov-14 17:29N 51°42' E 004°36'0 0.0
2017-Nov-14 16:35N 51°42' E 004°36'0 0.0
2017-Nov-14 16:05N 51°42' E 004°36'0 0.0
2017-Nov-14 15:56N 51°42' E 004°36'0 0.0
2017-Nov-14 14:35N 51°42' E 004°36'0 0.0
2017-Nov-14 14:23N 51°42' E 004°36'0 0.0
2017-Nov-14 13:53N 51°42' E 004°36'0 0.0
2017-Nov-14 13:29N 51°42' E 004°36'0 0.0
2017-Nov-14 12:50N 51°42' E 004°36'0 0.0
2017-Nov-14 11:17N 51°42' E 004°36'0 0.0
2017-Nov-14 10:35N 51°42' E 004°36'0 0.3
2017-Nov-14 10:26N 51°42' E 004°36'0 0.1
2017-Nov-14 09:47N 51°42' E 004°36'0 0.0
2017-Nov-14 08:53N 51°42' E 004°36'0 0.0
2017-Nov-14 08:11N 51°42' E 004°36'0 0.0
2017-Nov-14 07:56N 51°42' E 004°36'0 0.0
2017-Nov-14 07:20N 51°42' E 004°36'0 0.0
2017-Nov-14 06:59N 51°42' E 004°36'0 0.0
2017-Nov-14 06:26N 51°42' E 004°36'0 0.0
2017-Nov-14 05:59N 51°42' E 004°36'0 0.0
2017-Nov-14 05:29N 51°42' E 004°36'0 0.0
2017-Nov-14 04:53N 51°42' E 004°36'0 0.0
2017-Nov-14 04:29N 51°42' E 004°36'0 0.0
2017-Nov-14 03:59N 51°42' E 004°36'0 0.0
2017-Nov-14 03:29N 51°42' E 004°36'0 0.0
2017-Nov-14 02:56N 51°42' E 004°36'0 0.0
2017-Nov-14 02:29N 51°42' E 004°36'0 0.0
2017-Nov-14 01:50N 51°42' E 004°36'0 0.0
2017-Nov-14 01:17N 51°42' E 004°36'0 0.0
2017-Nov-14 00:53N 51°42' E 004°36'0 0.0
2017-Nov-14 00:17N 51°42' E 004°36'0 0.0
2017-Nov-13 23:59N 51°42' E 004°36'0 0.0
2017-Nov-13 23:29N 51°42' E 004°36'0 0.0
2017-Nov-13 22:53N 51°42' E 004°36'0 0.0
2017-Nov-13 22:23N 51°42' E 004°36'0 0.0
2017-Nov-13 21:44N 51°42' E 004°36'98 5.0
2017-Nov-13 02:00N 51°14' E 002°04'1 2.2
2017-Nov-13 01:31N 51°13' E 002°03'2 4.4
2017-Nov-13 01:00N 51°12' E 002°00'2 4.7
2017-Nov-13 00:30N 51°11' E 001°57'2 4.4
2017-Nov-13 00:00N 51°10' E 001°54'2 4.6
2017-Nov-12 23:31N 51°08' E 001°51'2 4.5
2017-Nov-12 23:00N 51°07' E 001°48'2 4.4
2017-Nov-12 22:30N 51°06' E 001°45'2 3.5
2017-Nov-12 22:01N 51°05' E 001°43'2 4.6
2017-Nov-12 21:31N 51°03' E 001°40'2 4.8
2017-Nov-12 21:00N 51°01' E 001°38'3 5.4
2017-Nov-12 20:30N 50°60' E 001°34'3 5.8
2017-Nov-12 20:00N 50°58' E 001°31'3 5.8
2017-Nov-12 19:30N 50°56' E 001°27'3 5.2
2017-Nov-12 18:59N 50°54' E 001°25'54 7.8
2017-Nov-12 12:04N 50°23' E 000°15'3 8.6
2017-Nov-12 11:39N 50°22' E 000°10'1 8.4
2017-Nov-12 11:30N 50°21' E 000°08'4 8.2
2017-Nov-12 11:00N 50°20' E 000°02'4 8.1
2017-Nov-12 10:28N 50°19' W 000°05'6 7.9
2017-Nov-12 09:41N 50°17' W 000°14'30 8.0
2017-Nov-12 05:57N 50°09' W 000°59'4 9.1
2017-Nov-12 05:30N 50°08' W 001°05'5 9.6
2017-Nov-12 05:00N 50°06' W 001°12'510.1
2017-Nov-12 04:30N 50°05' W 001°20'510.7
2017-Nov-12 04:00N 50°03' W 001°28'611.1
2017-Nov-12 03:30N 50°02' W 001°36'611.3
2017-Nov-12 03:01N 50°00' W 001°44'611.5
2017-Nov-12 02:30N 49°59' W 001°53'1411.6
2017-Nov-12 01:18N 49°55' W 002°14'311.1
2017-Nov-12 01:00N 49°54' W 002°19'54 9.4
2017-Nov-11 19:15N 49°32' W 003°35'96 8.6
2017-Nov-11 08:05N 48°42' W 005°40'13 9.1
2017-Nov-11 06:41N 48°31' W 005°48'2 9.0
2017-Nov-11 06:27N 48°29' W 005°49'271 8.6
2017-Nov-09 22:48N 44°05' W 007°20'3 9.0
2017-Nov-09 22:27N 44°02' W 007°21'4 8.9
2017-Nov-09 21:58N 43°58' W 007°22'4 8.8
2017-Nov-09 21:30N 43°54' W 007°24'4 9.0
2017-Nov-09 21:00N 43°49' W 007°25'5 9.2
2017-Nov-09 20:30N 43°45' W 007°26'0 0.0
2017-Nov-09 01:07N 43°45' W 007°27'110.0
2017-Nov-09 01:00N 43°46' W 007°27'510.0
2017-Nov-09 00:30N 43°50' W 007°31'510.0
2017-Nov-08 23:59N 43°54' W 007°35'0 0.5
2017-Nov-08 23:31N 43°54' W 007°35'1 2.4
2017-Nov-08 23:01N 43°53' W 007°35'2 4.9
2017-Nov-08 22:31N 43°51' W 007°34'1 3.0
2017-Nov-08 22:01N 43°50' W 007°33'1 1.6
2017-Nov-08 21:31N 43°49' W 007°32'1 1.6
2017-Nov-08 21:01N 43°48' W 007°32'1 1.6
2017-Nov-08 20:30N 43°48' W 007°31'1 1.6
2017-Nov-08 20:01N 43°47' W 007°30'1 1.6
2017-Nov-08 19:30N 43°47' W 007°29'1 1.4
2017-Nov-08 19:00N 43°47' W 007°28'1 1.3
2017-Nov-08 18:31N 43°46' W 007°27'0 0.7
2017-Nov-08 18:00N 43°46' W 007°28'1 2.5
2017-Nov-08 17:30N 43°47' W 007°29'1 2.8
2017-Nov-08 17:00N 43°48' W 007°30'1 2.7
2017-Nov-08 16:30N 43°49' W 007°31'1 2.9
2017-Nov-08 16:01N 43°51' W 007°32'1 2.7
2017-Nov-08 15:30N 43°52' W 007°33'1 2.4
2017-Nov-08 15:00N 43°51' W 007°32'1 2.5
2017-Nov-08 14:31N 43°51' W 007°30'1 2.4
2017-Nov-08 14:00N 43°50' W 007°29'1 2.5
2017-Nov-08 13:30N 43°50' W 007°27'1 2.2
2017-Nov-08 13:00N 43°49' W 007°26'1 2.2
2017-Nov-08 12:30N 43°49' W 007°24'1 2.1
2017-Nov-08 12:00N 43°49' W 007°23'  
Track history (hours):
 
Tides and Currents Weather Stations Pressure Air Temp Water Temp Dewpoint Dewpoint Depression Visibility Wind Speed Wind Dir Waves Ship Positions

Wilson Gdynia

Last reported at 2017-Nov-18 12:00 UTC. Time now 2017-Nov-18 17:37 UTC.
Position N 54°49' E 000°06'.

Length 88 m; draft 5.8 m.

Type: Ship. MMSI: 314192000.

Date/timePositionNaut miles runAvg speedWind from/ knotsBaromVisibWave heightAir tempDewpointWater temp
2017-Nov-18 12:00N 54°49' E 000°06'5 7.2
2017-Nov-18 11:23N 54°45' E 000°09'3 7.6
2017-Nov-18 10:57N 54°42' E 000°11'3 7.5
2017-Nov-18 10:31N 54°39' E 000°13'4 7.4
2017-Nov-18 10:01N 54°35' E 000°16'4 8.0
2017-Nov-18 09:31N 54°32' E 000°18'4 7.6
2017-Nov-18 09:01N 54°28' E 000°21'4 7.5
2017-Nov-18 08:31N 54°25' E 000°23'4 7.8
2017-Nov-18 08:01N 54°21' E 000°26'4 8.0
2017-Nov-18 07:31N 54°17' E 000°28'5 8.3
2017-Nov-18 06:54N 54°13' E 000°31'3 8.8
2017-Nov-18 06:30N 54°09' E 000°33'4 8.8
2017-Nov-18 06:00N 54°05' E 000°36'54 8.3
2017-Nov-17 23:29N 53°20' E 001°26'510.1
2017-Nov-17 23:00N 53°16' E 001°30'5 9.9
2017-Nov-17 22:30N 53°12' E 001°34'5 9.5
2017-Nov-17 22:01N 53°07' E 001°37'5 9.1
2017-Nov-17 21:31N 53°03' E 001°40'4 8.4
2017-Nov-17 21:01N 53°00' E 001°44'4 8.1
2017-Nov-17 20:31N 52°58' E 001°50'4 7.6
2017-Nov-17 20:01N 52°55' E 001°55'4 7.0
2017-Nov-17 19:30N 52°53' E 001°59'3 7.0
2017-Nov-17 19:00N 52°50' E 002°03'3 7.0
2017-Nov-17 18:30N 52°48' E 002°07'69 9.5
2017-Nov-17 11:14N 52°07' E 003°38'2 9.7
2017-Nov-17 11:00N 52°06' E 003°41'510.0
2017-Nov-17 10:31N 52°03' E 003°48'4 7.6
2017-Nov-17 10:01N 52°02' E 003°54'510.3
2017-Nov-17 09:31N 51°60' E 004°02'612.0
2017-Nov-17 09:00N 51°57' E 004°10'612.0
2017-Nov-17 08:30N 51°54' E 004°18'2 4.1
2017-Nov-17 07:58N 51°54' E 004°22'0 0.0
2017-Nov-17 07:28N 51°54' E 004°22'0 0.0
2017-Nov-17 06:58N 51°54' E 004°22'0 0.0
2017-Nov-17 06:28N 51°54' E 004°22'0 0.0
2017-Nov-17 05:58N 51°54' E 004°22'0 0.1
2017-Nov-17 05:28N 51°54' E 004°22'0 0.0
2017-Nov-17 04:58N 51°54' E 004°22'0 0.0
2017-Nov-17 04:28N 51°54' E 004°22'0 0.0
2017-Nov-17 03:58N 51°54' E 004°22'0 0.0
2017-Nov-17 03:28N 51°54' E 004°22'0 0.0
2017-Nov-17 02:58N 51°54' E 004°22'0 0.0
2017-Nov-17 02:25N 51°54' E 004°22'0 0.0
2017-Nov-17 01:58N 51°54' E 004°22'0 0.0
2017-Nov-17 01:25N 51°54' E 004°22'0 0.0
2017-Nov-17 00:58N 51°54' E 004°22'0 0.0
2017-Nov-17 00:28N 51°54' E 004°22'0 0.0
2017-Nov-16 23:58N 51°54' E 004°22'0 0.0
2017-Nov-16 23:28N 51°54' E 004°22'0 0.0
2017-Nov-16 22:58N 51°54' E 004°22'0 0.0
2017-Nov-16 22:28N 51°54' E 004°22'0 0.0
2017-Nov-16 21:58N 51°54' E 004°22'0 0.0
2017-Nov-16 21:28N 51°54' E 004°22'0 0.0
2017-Nov-16 20:58N 51°54' E 004°22'0 0.0
2017-Nov-16 20:22N 51°54' E 004°22'0 0.0
2017-Nov-16 19:58N 51°54' E 004°22'0 0.0
2017-Nov-16 19:28N 51°54' E 004°22'0 0.0
2017-Nov-16 18:58N 51°54' E 004°22'0 0.0
2017-Nov-16 18:28N 51°54' E 004°22'0 0.1
2017-Nov-16 17:58N 51°54' E 004°22'0 0.1
2017-Nov-16 17:28N 51°54' E 004°22'0 0.0
2017-Nov-16 16:58N 51°54' E 004°22'0 0.0
2017-Nov-16 16:28N 51°54' E 004°22'0 0.0
2017-Nov-16 15:58N 51°54' E 004°22'0 0.0
2017-Nov-16 15:28N 51°54' E 004°22'0 0.0
2017-Nov-16 14:58N 51°54' E 004°22'0 0.0
2017-Nov-16 14:28N 51°54' E 004°22'0 0.0
2017-Nov-16 13:58N 51°54' E 004°22'0 0.0
2017-Nov-16 13:28N 51°54' E 004°22'0 0.0
2017-Nov-16 12:55N 51°54' E 004°22'0 0.0
2017-Nov-16 12:28N 51°54' E 004°22'0 0.0
2017-Nov-16 11:58N 51°54' E 004°22'0 0.0
2017-Nov-16 11:22N 51°54' E 004°22'0 0.1
2017-Nov-16 11:01N 51°54' E 004°22'2 4.9
2017-Nov-16 10:30N 51°54' E 004°26'2 2.9
2017-Nov-16 09:59N 51°54' E 004°28'0 0.0
2017-Nov-16 09:29N 51°54' E 004°28'0 0.0
2017-Nov-16 08:59N 51°54' E 004°28'0 0.0
2017-Nov-16 08:29N 51°54' E 004°28'0 0.0
2017-Nov-16 07:59N 51°54' E 004°28'0 0.0
2017-Nov-16 07:29N 51°54' E 004°28'0 0.0
2017-Nov-16 06:59N 51°54' E 004°28'0 0.0
2017-Nov-16 06:29N 51°54' E 004°28'0 0.0
2017-Nov-16 05:59N 51°54' E 004°28'0 0.0
2017-Nov-16 05:29N 51°54' E 004°28'0 0.0
2017-Nov-16 04:59N 51°54' E 004°28'0 0.0
2017-Nov-16 04:29N 51°54' E 004°28'0 0.0
2017-Nov-16 03:59N 51°54' E 004°28'0 0.0
2017-Nov-16 03:29N 51°54' E 004°28'0 0.0
2017-Nov-16 02:59N 51°54' E 004°28'0 0.0
2017-Nov-16 02:29N 51°54' E 004°28'0 0.0
2017-Nov-16 01:59N 51°54' E 004°28'0 0.0
2017-Nov-16 01:29N 51°54' E 004°28'0 0.0
2017-Nov-16 00:59N 51°54' E 004°28'0 0.2
2017-Nov-16 00:30N 51°54' E 004°28'0 0.3
2017-Nov-15 23:59N 51°54' E 004°28'0 0.0
2017-Nov-15 23:29N 51°54' E 004°28'0 0.0
2017-Nov-15 23:00N 51°54' E 004°28'3 6.3
2017-Nov-15 22:30N 51°54' E 004°23'3 5.5
2017-Nov-15 22:00N 51°52' E 004°20'5 9.9
2017-Nov-15 21:30N 51°50' E 004°28'5 9.4
2017-Nov-15 21:00N 51°48' E 004°35'5 9.7
2017-Nov-15 20:30N 51°44' E 004°38'3 5.3
2017-Nov-15 19:59N 51°42' E 004°36'0 0.0
2017-Nov-15 19:29N 51°42' E 004°36'0 0.0
2017-Nov-15 18:59N 51°42' E 004°36'0 0.0
2017-Nov-15 18:26N 51°42' E 004°36'0 0.0
2017-Nov-15 17:56N 51°42' E 004°36'0 0.0
2017-Nov-15 17:29N 51°42' E 004°36'0 0.0
2017-Nov-15 16:59N 51°42' E 004°36'0 0.0
2017-Nov-15 15:29N 51°42' E 004°36'0 0.0
2017-Nov-15 14:53N 51°42' E 004°36'0 0.0
2017-Nov-15 14:29N 51°42' E 004°36'0 0.0
2017-Nov-15 13:41N 51°42' E 004°36'0 0.0
2017-Nov-15 13:29N 51°42' E 004°36'0 0.0
2017-Nov-15 12:59N 51°42' E 004°36'0 0.0
2017-Nov-15 12:29N 51°42' E 004°36'0 0.0
2017-Nov-15 11:59N 51°42' E 004°36'0 0.0
2017-Nov-15 10:53N 51°42' E 004°36'0 0.0
2017-Nov-15 10:26N 51°42' E 004°36'0 0.0
2017-Nov-15 09:56N 51°42' E 004°36'0 0.0
2017-Nov-15 09:14N 51°42' E 004°36'0 0.0
2017-Nov-15 08:50N 51°42' E 004°36'0 0.0
2017-Nov-15 08:29N 51°42' E 004°36'0 0.0
2017-Nov-15 07:53N 51°42' E 004°36'0 0.0
2017-Nov-15 07:17N 51°42' E 004°36'0 0.0
2017-Nov-15 06:47N 51°42' E 004°36'0 0.0
2017-Nov-15 06:26N 51°42' E 004°36'0 0.0
2017-Nov-15 05:59N 51°42' E 004°36'0 0.0
2017-Nov-15 05:05N 51°42' E 004°36'0 0.0
2017-Nov-15 04:53N 51°42' E 004°36'0 0.0
2017-Nov-15 04:26N 51°42' E 004°36'0 0.0
2017-Nov-15 03:59N 51°42' E 004°36'0 0.0
2017-Nov-15 03:29N 51°42' E 004°36'0 0.0
2017-Nov-15 02:53N 51°42' E 004°36'0 0.0
2017-Nov-15 02:26N 51°42' E 004°36'0 0.0
2017-Nov-15 01:50N 51°42' E 004°36'0 0.0
2017-Nov-15 01:26N 51°42' E 004°36'0 0.0
2017-Nov-15 00:53N 51°42' E 004°36'0 0.0
2017-Nov-15 00:23N 51°42' E 004°36'0 0.0
2017-Nov-14 23:29N 51°42' E 004°36'0 0.0
2017-Nov-14 22:59N 51°42' E 004°36'0 0.0
2017-Nov-14 22:29N 51°42' E 004°36'0 0.0
2017-Nov-14 21:50N 51°42' E 004°36'0 0.0
2017-Nov-14 21:26N 51°42' E 004°36'0 0.0
2017-Nov-14 20:59N 51°42' E 004°36'0 0.0
2017-Nov-14 20:29N 51°42' E 004°36'0 0.0
2017-Nov-14 19:59N 51°42' E 004°36'0 0.0
2017-Nov-14 19:26N 51°42' E 004°36'0 0.0
2017-Nov-14 18:59N 51°42' E 004°36'0 0.0
2017-Nov-14 18:29N 51°42' E 004°36'0 0.0
2017-Nov-14 17:53N 51°42' E 004°36'0 0.0
2017-Nov-14 17:29N 51°42' E 004°36'0 0.0
2017-Nov-14 16:35N 51°42' E 004°36'0 0.0
2017-Nov-14 16:05N 51°42' E 004°36'0 0.0
2017-Nov-14 15:56N 51°42' E 004°36'0 0.0
2017-Nov-14 14:35N 51°42' E 004°36'0 0.0
2017-Nov-14 14:23N 51°42' E 004°36'0 0.0
2017-Nov-14 13:53N 51°42' E 004°36'0 0.0
2017-Nov-14 13:29N 51°42' E 004°36'0 0.0
2017-Nov-14 12:50N 51°42' E 004°36'0 0.0
2017-Nov-14 11:17N 51°42' E 004°36'0 0.0
2017-Nov-14 10:35N 51°42' E 004°36'0 0.3
2017-Nov-14 10:26N 51°42' E 004°36'0 0.1
2017-Nov-14 09:47N 51°42' E 004°36'0 0.0
2017-Nov-14 08:53N 51°42' E 004°36'0 0.0
2017-Nov-14 08:11N 51°42' E 004°36'0 0.0
2017-Nov-14 07:56N 51°42' E 004°36'0 0.0
2017-Nov-14 07:20N 51°42' E 004°36'0 0.0
2017-Nov-14 06:59N 51°42' E 004°36'0 0.0
2017-Nov-14 06:26N 51°42' E 004°36'0 0.0
2017-Nov-14 05:59N 51°42' E 004°36'0 0.0
2017-Nov-14 05:29N 51°42' E 004°36'0 0.0
2017-Nov-14 04:53N 51°42' E 004°36'0 0.0
2017-Nov-14 04:29N 51°42' E 004°36'0 0.0
2017-Nov-14 03:59N 51°42' E 004°36'0 0.0
2017-Nov-14 03:29N 51°42' E 004°36'0 0.0
2017-Nov-14 02:56N 51°42' E 004°36'0 0.0
2017-Nov-14 02:29N 51°42' E 004°36'0 0.0
2017-Nov-14 01:50N 51°42' E 004°36'0 0.0
2017-Nov-14 01:17N 51°42' E 004°36'0 0.0
2017-Nov-14 00:53N 51°42' E 004°36'0 0.0
2017-Nov-14 00:17N 51°42' E 004°36'0 0.0
2017-Nov-13 23:59N 51°42' E 004°36'0 0.0
2017-Nov-13 23:29N 51°42' E 004°36'0 0.0
2017-Nov-13 22:53N 51°42' E 004°36'0 0.0
2017-Nov-13 22:23N 51°42' E 004°36'0 0.0
2017-Nov-13 21:44N 51°42' E 004°36'98 5.0
2017-Nov-13 02:00N 51°14' E 002°04'1 2.2
2017-Nov-13 01:31N 51°13' E 002°03'2 4.4
2017-Nov-13 01:00N 51°12' E 002°00'2 4.7
2017-Nov-13 00:30N 51°11' E 001°57'2 4.4
2017-Nov-13 00:00N 51°10' E 001°54'2 4.6
2017-Nov-12 23:31N 51°08' E 001°51'2 4.5
2017-Nov-12 23:00N 51°07' E 001°48'2 4.4
2017-Nov-12 22:30N 51°06' E 001°45'2 3.5
2017-Nov-12 22:01N 51°05' E 001°43'2 4.6
2017-Nov-12 21:31N 51°03' E 001°40'2 4.8
2017-Nov-12 21:00N 51°01' E 001°38'3 5.4
2017-Nov-12 20:30N 50°60' E 001°34'3 5.8
2017-Nov-12 20:00N 50°58' E 001°31'3 5.8
2017-Nov-12 19:30N 50°56' E 001°27'3 5.2
2017-Nov-12 18:59N 50°54' E 001°25'54 7.8
2017-Nov-12 12:04N 50°23' E 000°15'3 8.6
2017-Nov-12 11:39N 50°22' E 000°10'1 8.4
2017-Nov-12 11:30N 50°21' E 000°08'4 8.2
2017-Nov-12 11:00N 50°20' E 000°02'4 8.1
2017-Nov-12 10:28N 50°19' W 000°05'6 7.9
2017-Nov-12 09:41N 50°17' W 000°14'30 8.0
2017-Nov-12 05:57N 50°09' W 000°59'4 9.1
2017-Nov-12 05:30N 50°08' W 001°05'5 9.6
2017-Nov-12 05:00N 50°06' W 001°12'510.1
2017-Nov-12 04:30N 50°05' W 001°20'510.7
2017-Nov-12 04:00N 50°03' W 001°28'611.1
2017-Nov-12 03:30N 50°02' W 001°36'611.3
2017-Nov-12 03:01N 50°00' W 001°44'611.5
2017-Nov-12 02:30N 49°59' W 001°53'1411.6
2017-Nov-12 01:18N 49°55' W 002°14'311.1
2017-Nov-12 01:00N 49°54' W 002°19'54 9.4
2017-Nov-11 19:15N 49°32' W 003°35'96 8.6
2017-Nov-11 08:05N 48°42' W 005°40'13 9.1
2017-Nov-11 06:41N 48°31' W 005°48'2 9.0
2017-Nov-11 06:27N 48°29' W 005°49'271 8.6
2017-Nov-09 22:48N 44°05' W 007°20'3 9.0
2017-Nov-09 22:27N 44°02' W 007°21'4 8.9
2017-Nov-09 21:58N 43°58' W 007°22'4 8.8
2017-Nov-09 21:30N 43°54' W 007°24'4 9.0
2017-Nov-09 21:00N 43°49' W 007°25'5 9.2
2017-Nov-09 20:30N 43°45' W 007°26'0 0.0
2017-Nov-09 01:07N 43°45' W 007°27'110.0
2017-Nov-09 01:00N 43°46' W 007°27'510.0
2017-Nov-09 00:30N 43°50' W 007°31'510.0
2017-Nov-08 23:59N 43°54' W 007°35'0 0.5
2017-Nov-08 23:31N 43°54' W 007°35'1 2.4
2017-Nov-08 23:01N 43°53' W 007°35'2 4.9
2017-Nov-08 22:31N 43°51' W 007°34'1 3.0
2017-Nov-08 22:01N 43°50' W 007°33'1 1.6
2017-Nov-08 21:31N 43°49' W 007°32'1 1.6
2017-Nov-08 21:01N 43°48' W 007°32'1 1.6
2017-Nov-08 20:30N 43°48' W 007°31'1 1.6
2017-Nov-08 20:01N 43°47' W 007°30'1 1.6
2017-Nov-08 19:30N 43°47' W 007°29'1 1.4
2017-Nov-08 19:00N 43°47' W 007°28'1 1.3
2017-Nov-08 18:31N 43°46' W 007°27'0 0.7
2017-Nov-08 18:00N 43°46' W 007°28'1 2.5
2017-Nov-08 17:30N 43°47' W 007°29'1 2.8
2017-Nov-08 17:00N 43°48' W 007°30'1 2.7
2017-Nov-08 16:30N 43°49' W 007°31'1 2.9
2017-Nov-08 16:01N 43°51' W 007°32'1 2.7
2017-Nov-08 15:30N 43°52' W 007°33'1 2.4
2017-Nov-08 15:00N 43°51' W 007°32'1 2.5
2017-Nov-08 14:31N 43°51' W 007°30'1 2.4
2017-Nov-08 14:00N 43°50' W 007°29'1 2.5
2017-Nov-08 13:30N 43°50' W 007°27'1 2.2
2017-Nov-08 13:00N 43°49' W 007°26'1 2.2
2017-Nov-08 12:30N 43°49' W 007°24'1 2.1
2017-Nov-08 12:00N 43°49' W 007°23'  

Dump ship's entire track history